100dorog.ru alexa rank chart, 100dorog.ru alexa rank daily changes

100dorog.ru alexa rank chart, 100dorog.ru alexa rank daily changes

100dorog.ru
Actual rank:
326 685

RANK HISTORY

Date Rank Diff
2018/04/27 326 685 +131 971
2018/04/26 194 714 -7 980
2018/04/25 202 694 +44 963
2018/04/24 157 731 -168 954
2018/04/23 326 685 +201 729
2018/04/22 124 956 -159 099
2018/04/21 284 055 +122 954
2018/04/20 161 101 +3 540
2018/04/19 157 561 -48 634
2018/04/18 206 195 +18 544
2018/04/17 187 651 +34 368
2018/04/16 153 283 -149 966
2018/04/15 303 249 +3 426
2018/04/14 299 823 +80 790
2018/04/13 219 033 +10 806
2018/04/12 208 227 +69 438
2018/04/11 138 789 +9 517
2018/04/10 129 272 -42 566
2018/04/09 171 838 -64 405
2018/04/08 236 243 +53 505
2018/04/07 182 738 -15 102
2018/04/06 197 840 +58 380
2018/04/05 139 460 -53 891
2018/04/04 193 351 +45 758
2018/04/03 147 593 -57 091
2018/04/02 204 684 -42 390
2018/04/01 247 074 +119 621
2018/03/31 127 453 -65 262
2018/03/30 192 715 -85 544
2018/03/29 278 259 +77 167
2018/03/28 201 092 +20 667
2018/03/27 180 425 -16 202
2018/03/26 196 627 +18 488
2018/03/25 178 139 +19 741
2018/03/24 158 398 -77 001
2018/03/23 235 399 +76 454
2018/03/22 158 945 +26 098
2018/03/21 132 847 -77 106
2018/03/20 209 953 +44 046
2018/03/19 165 907 -153 018
2018/03/18 318 925 +89 496
2018/03/17 229 429 -14 076
2018/03/16 243 505 +65 442
2018/03/15 178 063 -34 036
2018/03/14 212 099 +126 533
2018/03/13 85 566 -119 300
2018/03/12 204 866 +118 328
2018/03/11 86 538 +847
2018/03/10 85 691 -13 316
2018/03/09 99 007 -20 371
2018/03/08 119 378 -182 711
2018/03/07 302 089 -17 803
2018/03/06 319 892 +190 478
2018/03/05 129 414 +40 192
2018/03/04 89 222 -191 947
2018/03/03 281 169 +87 557
2018/03/02 193 612 -34 828
2018/03/01 228 440 -10 108
2018/02/28 238 548 +58 359
2018/02/27 180 189 -51 008
2018/02/26 231 197

WIDGET FOR YOUR SITE

DOMAINS WITH THE NEAREST RANK

Domain Rank
directvarena.com 326 680
artikul.ru 326 681
site-libertin.com 326 682
descargasdoramas.wordpress.com 326 683
studentochka.ru 326 684
100dorog.ru 326 685
colombiamegusta.com 326 686
bbproxy.github.io 326 687
sadiki.in.ua 326 688
kfhbonline.com 326 689
ouuo.ru 326 690

DOMAINS WITH THE NEAREST RANK BY TLD .ru

Domain Rank
vitz.ru 326 600
bravedefender.ru 326 611
prizyvnik-soldat.ru 326 673
artikul.ru 326 681
studentochka.ru 326 684
100dorog.ru 326 685
ouuo.ru 326 690
greentechreviews.ru 326 693
tempsms.ru 326 741
igrotime.ru 326 747
centrprazdnika.ru 326 754